createdAt,value
2022-12-04T00:01:56.386Z,0.70
2022-12-04T00:04:24.643Z,0.70
2022-12-04T00:06:58.626Z,0.70
2022-12-04T00:09:27.569Z,0.80
2022-12-04T00:11:55.786Z,0.80
2022-12-04T00:14:25.290Z,0.70
2022-12-04T00:16:53.519Z,0.70
2022-12-04T00:19:21.845Z,0.80
2022-12-04T00:21:51.087Z,0.90
2022-12-04T00:24:19.387Z,1.00
2022-12-04T00:26:47.520Z,0.90
2022-12-04T00:29:15.768Z,1.00
2022-12-04T00:31:45.712Z,1.00
2022-12-04T00:34:14.280Z,0.80
2022-12-04T00:36:42.628Z,0.80
2022-12-04T00:39:11.045Z,0.80
2022-12-04T00:41:39.734Z,0.70
2022-12-04T00:44:07.938Z,0.70
2022-12-04T00:46:36.183Z,0.70
2022-12-04T00:49:05.764Z,0.80
2022-12-04T00:51:33.931Z,0.80
2022-12-04T00:54:02.208Z,0.70
2022-12-04T00:56:30.754Z,0.70
2022-12-04T00:59:01.212Z,0.70
2022-12-04T01:01:31.488Z,0.70
2022-12-04T01:03:59.997Z,0.80
2022-12-04T01:06:32.231Z,0.90
2022-12-04T01:09:02.593Z,0.90
2022-12-04T01:11:31.706Z,0.90
2022-12-04T01:14:01.172Z,1.00
2022-12-04T01:16:32.451Z,1.00
2022-12-04T01:19:01.876Z,1.00
2022-12-04T01:21:31.443Z,1.00
2022-12-04T01:24:00.691Z,1.00
2022-12-04T01:26:29.553Z,0.90
2022-12-04T01:28:57.754Z,0.80
2022-12-04T01:31:26.368Z,0.80
2022-12-04T01:33:54.962Z,0.80
2022-12-04T01:36:26.691Z,0.80
2022-12-04T01:38:57.471Z,0.90
2022-12-04T01:41:29.713Z,0.90
2022-12-04T01:44:17.774Z,0.90
2022-12-04T01:46:48.116Z,0.90
2022-12-04T01:49:22.356Z,0.90
2022-12-04T01:51:54.875Z,0.70
2022-12-04T01:54:31.224Z,1.00
2022-12-04T01:57:05.386Z,1.00
2022-12-04T01:59:42.620Z,1.00
2022-12-04T02:02:16.008Z,0.90
2022-12-04T02:04:47.115Z,1.00
2022-12-04T02:07:15.304Z,1.10
2022-12-04T02:09:45.466Z,1.10
2022-12-04T02:12:25.474Z,1.10
2022-12-04T02:15:08.143Z,1.10
2022-12-04T02:17:45.316Z,1.00
2022-12-04T02:20:32.208Z,1.00
2022-12-04T02:23:38.124Z,0.90
2022-12-04T02:26:37.893Z,0.90
2022-12-04T02:29:17.543Z,1.00
2022-12-04T02:31:56.396Z,1.00
2022-12-04T02:34:30.300Z,1.10
2022-12-04T02:37:05.674Z,1.10
2022-12-04T02:39:41.180Z,1.00
2022-12-04T02:42:16.045Z,1.00
2022-12-04T02:44:50.804Z,1.00
2022-12-04T02:47:24.363Z,1.10
2022-12-04T02:49:59.830Z,1.10
2022-12-04T02:52:35.490Z,1.10
2022-12-04T02:55:09.179Z,1.10
2022-12-04T02:57:45.161Z,1.10
2022-12-04T03:00:17.177Z,1.00
2022-12-04T03:03:00.243Z,1.10
2022-12-04T03:05:39.654Z,1.00
2022-12-04T03:08:16.938Z,0.90
2022-12-04T03:10:52.090Z,1.00
2022-12-04T03:13:26.925Z,0.90
2022-12-04T03:16:05.533Z,1.00
2022-12-04T03:18:41.547Z,0.90
2022-12-04T03:21:17.453Z,1.00
2022-12-04T03:23:52.928Z,1.00
2022-12-04T03:26:30.348Z,1.10
2022-12-04T03:29:09.016Z,0.90
2022-12-04T03:31:47.669Z,1.00
2022-12-04T03:34:29.126Z,0.90
2022-12-04T03:37:05.056Z,1.00
2022-12-04T03:39:42.580Z,1.00
2022-12-04T03:42:19.803Z,1.40
2022-12-04T03:44:54.559Z,1.10
2022-12-04T03:47:32.687Z,1.10
2022-12-04T03:50:08.976Z,1.00
2022-12-04T03:52:49.792Z,1.10
2022-12-04T03:55:29.727Z,1.20
2022-12-04T03:58:05.788Z,1.10
2022-12-04T04:00:38.876Z,1.00
2022-12-04T04:03:15.393Z,1.00
2022-12-04T04:05:49.190Z,1.00
2022-12-04T04:08:27.278Z,1.70
2022-12-04T04:11:02.834Z,1.00
2022-12-04T04:13:56.486Z,1.10
2022-12-04T04:16:47.542Z,1.00
2022-12-04T04:19:38.079Z,0.90
2022-12-04T04:22:28.576Z,1.00
2022-12-04T04:25:04.484Z,1.10
2022-12-04T04:27:32.701Z,1.10
2022-12-04T04:30:01.607Z,1.10
2022-12-04T04:32:40.681Z,1.10
2022-12-04T04:35:22.135Z,1.10
2022-12-04T04:38:02.720Z,1.10
2022-12-04T04:40:39.551Z,1.20
2022-12-04T04:43:14.959Z,1.20
2022-12-04T04:45:49.529Z,1.10
2022-12-04T04:48:26.712Z,1.10
2022-12-04T04:50:57.581Z,1.10
2022-12-04T04:53:35.090Z,1.10
2022-12-04T04:56:05.813Z,1.30
2022-12-04T04:58:33.996Z,1.30
2022-12-04T05:01:05.935Z,1.20
2022-12-04T05:03:35.071Z,1.20
2022-12-04T05:06:05.092Z,1.20
2022-12-04T05:08:33.567Z,1.10
2022-12-04T05:11:01.792Z,1.10
2022-12-04T05:13:31.249Z,1.20
2022-12-04T05:16:01.813Z,1.20
2022-12-04T05:18:31.513Z,1.10
2022-12-04T05:20:58.711Z,1.10
2022-12-04T05:23:28.347Z,1.10
2022-12-04T05:26:01.606Z,1.10
2022-12-04T05:28:30.030Z,1.00
2022-12-04T05:30:59.168Z,1.10
2022-12-04T05:33:27.723Z,1.10
2022-12-04T05:36:00.155Z,1.20
2022-12-04T05:38:30.536Z,1.10
2022-12-04T05:41:00.385Z,1.20
2022-12-04T05:43:28.962Z,1.20
2022-12-04T05:46:01.769Z,1.20
2022-12-04T05:48:30.000Z,1.30
2022-12-04T05:50:58.554Z,1.20
2022-12-04T05:53:26.706Z,1.20
2022-12-04T05:56:02.426Z,1.10
2022-12-04T05:58:31.478Z,1.10
2022-12-04T06:00:59.735Z,1.10
2022-12-04T06:03:28.246Z,1.10
2022-12-04T06:05:56.493Z,1.10
2022-12-04T06:08:24.766Z,1.20
2022-12-04T06:10:52.946Z,1.20
2022-12-04T06:13:22.503Z,1.20
2022-12-04T06:15:50.779Z,0.80
2022-12-04T06:18:18.933Z,1.00
2022-12-04T06:20:47.131Z,1.00
2022-12-04T06:23:15.340Z,1.00
2022-12-04T06:25:43.480Z,1.00
2022-12-04T06:28:11.685Z,1.00
2022-12-04T06:30:41.396Z,1.10
2022-12-04T06:33:09.546Z,1.10
2022-12-04T06:35:37.687Z,1.10
2022-12-04T06:38:05.835Z,1.10
2022-12-04T06:40:33.963Z,1.00
2022-12-04T06:43:02.274Z,1.10
2022-12-04T06:45:30.614Z,1.10
2022-12-04T06:48:00.128Z,1.20
2022-12-04T06:50:28.290Z,1.20
2022-12-04T06:52:56.411Z,1.20
2022-12-04T06:55:24.575Z,1.30
2022-12-04T06:57:52.797Z,1.20
2022-12-04T07:00:21.128Z,1.10
2022-12-04T07:02:49.345Z,1.10
2022-12-04T07:05:18.951Z,1.30
2022-12-04T07:07:47.225Z,1.30
2022-12-04T07:10:15.410Z,1.30
2022-12-04T07:12:43.565Z,1.40
2022-12-04T07:15:12.389Z,1.40
2022-12-04T07:17:40.505Z,1.40
2022-12-04T07:20:10.179Z,1.40
2022-12-04T07:22:39.710Z,1.20
2022-12-04T07:25:08.461Z,1.20
2022-12-04T07:27:36.610Z,1.30
2022-12-04T07:30:09.910Z,1.30
2022-12-04T07:32:40.843Z,1.30
2022-12-04T07:35:09.840Z,1.40
2022-12-04T07:37:39.615Z,1.50
2022-12-04T07:40:09.457Z,1.40
2022-12-04T07:42:37.575Z,1.40
2022-12-04T07:45:07.035Z,1.50
2022-12-04T07:47:37.444Z,1.40
2022-12-04T07:50:07.680Z,1.40
2022-12-04T07:52:38.840Z,1.30
2022-12-04T07:55:09.152Z,1.30
2022-12-04T07:57:37.357Z,1.30
2022-12-04T08:00:07.104Z,1.30
2022-12-04T08:02:35.350Z,1.30
2022-12-04T08:05:03.685Z,1.40
2022-12-04T08:07:33.459Z,1.40
2022-12-04T08:10:03.036Z,1.60
2022-12-04T08:12:32.911Z,1.30
2022-12-04T08:15:01.272Z,1.30
2022-12-04T08:17:29.665Z,1.20
2022-12-04T08:19:58.244Z,1.30
2022-12-04T08:22:26.700Z,1.40
2022-12-04T08:24:54.863Z,1.40
2022-12-04T08:27:24.320Z,1.50
2022-12-04T08:29:52.604Z,1.40
2022-12-04T08:32:20.799Z,1.50
2022-12-04T08:34:55.756Z,1.40
2022-12-04T08:37:24.492Z,1.50
2022-12-04T08:39:52.906Z,1.50
2022-12-04T08:42:21.312Z,1.40
2022-12-04T08:44:50.835Z,1.40
2022-12-04T08:47:19.013Z,1.20
2022-12-04T08:49:47.285Z,1.40
2022-12-04T08:52:15.478Z,1.60
2022-12-04T08:54:43.618Z,1.60
2022-12-04T08:57:11.885Z,1.80
2022-12-04T08:59:40.013Z,1.70
2022-12-04T09:02:11.421Z,1.70
2022-12-04T09:04:39.741Z,1.70
2022-12-04T09:07:07.964Z,1.70
2022-12-04T09:09:36.738Z,1.60
2022-12-04T09:12:05.220Z,1.70
2022-12-04T09:14:33.369Z,1.70
2022-12-04T09:17:01.682Z,1.70
2022-12-04T09:19:32.044Z,1.60
2022-12-04T09:22:00.218Z,1.60
2022-12-04T09:24:30.666Z,1.60
2022-12-04T09:26:58.929Z,1.90
2022-12-04T09:29:27.274Z,1.80
2022-12-04T09:31:55.419Z,1.80
2022-12-04T09:34:23.658Z,1.70
2022-12-04T09:36:53.123Z,1.70
2022-12-04T09:39:21.280Z,1.60
2022-12-04T09:42:32.023Z,1.80
2022-12-04T09:45:08.542Z,1.60
2022-12-04T09:47:43.861Z,1.70
2022-12-04T09:50:21.037Z,1.70
2022-12-04T09:52:58.888Z,1.70
2022-12-04T09:55:33.900Z,1.80
2022-12-04T09:58:06.105Z,1.90
2022-12-04T10:00:42.999Z,1.90
2022-12-04T10:03:19.055Z,1.90
2022-12-04T10:05:58.787Z,1.90
2022-12-04T10:08:32.882Z,1.90
2022-12-04T10:11:13.858Z,2.00
2022-12-04T10:14:24.424Z,2.00
2022-12-04T10:17:21.867Z,2.00
2022-12-04T10:20:01.430Z,2.00
2022-12-04T10:22:38.956Z,1.90
2022-12-04T10:25:16.615Z,2.10
2022-12-04T10:27:54.466Z,2.20
2022-12-04T10:30:26.409Z,2.10
2022-12-04T10:33:02.257Z,2.10
2022-12-04T10:35:34.178Z,2.30
2022-12-04T10:38:08.109Z,2.10
2022-12-04T10:40:47.256Z,2.20
2022-12-04T10:43:24.618Z,2.20
2022-12-04T10:45:53.477Z,2.20
2022-12-04T10:48:29.291Z,2.40
2022-12-04T10:50:57.720Z,2.40
2022-12-04T10:53:32.662Z,2.30
2022-12-04T10:56:13.370Z,2.40
2022-12-04T10:58:42.170Z,2.60
2022-12-04T11:01:15.475Z,2.60
2022-12-04T11:03:47.982Z,2.60
2022-12-04T11:06:16.465Z,2.70
2022-12-04T11:08:51.885Z,2.80
2022-12-04T11:11:27.250Z,2.80
2022-12-04T11:14:07.698Z,2.80
2022-12-04T11:16:41.925Z,2.60
2022-12-04T11:19:30.244Z,2.70
2022-12-04T11:22:06.234Z,2.90
2022-12-04T11:24:37.738Z,3.00
2022-12-04T11:27:16.811Z,2.80
2022-12-04T11:29:47.812Z,2.90
2022-12-04T11:32:24.092Z,2.90
2022-12-04T11:34:55.424Z,3.00
2022-12-04T11:37:30.872Z,3.00
2022-12-04T11:39:59.635Z,3.10
2022-12-04T11:42:31.390Z,3.20
2022-12-04T11:45:02.255Z,3.20
2022-12-04T11:47:33.336Z,3.30
2022-12-04T11:50:15.942Z,3.20
2022-12-04T11:53:04.434Z,3.40
2022-12-04T11:55:49.596Z,3.40
2022-12-04T11:58:42.373Z,3.50
2022-12-04T12:01:27.030Z,3.50
2022-12-04T12:04:22.687Z,3.50
2022-12-04T12:07:10.006Z,3.60
2022-12-04T12:09:52.048Z,3.50
2022-12-04T12:12:32.253Z,3.40
2022-12-04T12:15:18.033Z,3.60
2022-12-04T12:18:00.257Z,3.70
2022-12-04T12:20:38.409Z,3.50
2022-12-04T12:23:30.617Z,3.50
2022-12-04T12:26:09.783Z,3.60
2022-12-04T12:29:11.557Z,3.50
2022-12-04T12:32:13.382Z,3.40
2022-12-04T12:34:45.607Z,3.40
2022-12-04T12:37:24.942Z,3.40
2022-12-04T12:40:05.023Z,3.50
2022-12-04T12:42:41.939Z,3.50
2022-12-04T12:45:28.016Z,3.50
2022-12-04T12:48:08.404Z,3.60
2022-12-04T12:50:51.945Z,3.50
2022-12-04T12:53:41.280Z,3.60
2022-12-04T12:56:13.432Z,3.50
2022-12-04T12:58:48.248Z,3.60
2022-12-04T13:01:23.494Z,3.50
2022-12-04T13:04:03.245Z,3.60
2022-12-04T13:06:39.148Z,3.50
2022-12-04T13:09:19.110Z,3.50
2022-12-04T13:11:51.556Z,3.50
2022-12-04T13:14:19.685Z,3.60
2022-12-04T13:16:54.248Z,3.80
2022-12-04T13:19:28.693Z,3.60
2022-12-04T13:22:14.897Z,3.70
2022-12-04T13:25:12.051Z,3.80
2022-12-04T13:27:57.984Z,3.80
2022-12-04T13:30:37.780Z,3.80
2022-12-04T13:33:47.840Z,3.70
2022-12-04T13:36:54.566Z,3.70
2022-12-04T13:40:15.065Z,3.70
2022-12-04T13:42:43.586Z,3.60
2022-12-04T13:45:27.661Z,3.60
2022-12-04T13:48:01.403Z,3.60
2022-12-04T13:50:33.367Z,3.70
2022-12-04T13:53:03.718Z,3.80
2022-12-04T13:55:36.189Z,3.80
2022-12-04T13:58:31.605Z,3.70
2022-12-04T14:01:12.918Z,3.80
2022-12-04T14:03:50.272Z,3.80
2022-12-04T14:06:25.426Z,3.70
2022-12-04T14:09:01.407Z,3.70
2022-12-04T14:11:41.237Z,3.60
2022-12-04T14:14:27.625Z,3.70
2022-12-04T14:17:00.193Z,3.70
2022-12-04T14:19:35.123Z,3.60
2022-12-04T14:22:04.629Z,3.70
2022-12-04T14:24:37.372Z,3.70
2022-12-04T14:27:35.010Z,3.70
2022-12-04T14:30:05.803Z,3.60
2022-12-04T14:32:36.644Z,3.70
2022-12-04T14:35:06.029Z,3.60
2022-12-04T14:37:40.754Z,3.60
2022-12-04T14:40:23.942Z,3.70
2022-12-04T14:42:53.400Z,3.60
2022-12-04T14:45:35.284Z,3.60
2022-12-04T14:48:31.687Z,3.50
2022-12-04T14:51:14.204Z,3.60
2022-12-04T14:53:50.185Z,3.60
2022-12-04T14:56:40.752Z,3.60
2022-12-04T14:59:19.485Z,3.60
2022-12-04T15:01:51.723Z,3.60
2022-12-04T15:04:26.597Z,3.60
2022-12-04T15:07:00.222Z,3.60
2022-12-04T15:09:47.034Z,3.60
2022-12-04T15:12:37.268Z,3.50
2022-12-04T15:15:17.421Z,3.70
2022-12-04T15:18:01.700Z,3.90
2022-12-04T15:20:38.823Z,3.60
2022-12-04T15:23:14.072Z,3.60
2022-12-04T15:25:47.982Z,3.60
2022-12-04T15:28:22.110Z,3.60
2022-12-04T15:30:52.152Z,3.60
2022-12-04T15:33:28.307Z,3.60
2022-12-04T15:36:10.968Z,3.60
2022-12-04T15:38:41.137Z,3.60
2022-12-04T15:41:34.555Z,3.60
2022-12-04T15:44:03.946Z,3.60
2022-12-04T15:46:37.937Z,3.60
2022-12-04T15:49:16.711Z,3.50
2022-12-04T15:51:46.844Z,3.50
2022-12-04T15:54:22.335Z,3.60
2022-12-04T15:57:02.182Z,3.60
2022-12-04T15:59:33.974Z,3.70
2022-12-04T16:02:09.816Z,3.70
2022-12-04T16:04:45.301Z,3.60
2022-12-04T16:07:24.074Z,3.60
2022-12-04T16:10:02.608Z,3.60
2022-12-04T16:12:33.822Z,3.70
2022-12-04T16:15:02.017Z,3.60
2022-12-04T16:17:33.095Z,3.60
2022-12-04T16:20:07.721Z,4.20
2022-12-04T16:22:36.348Z,3.70
2022-12-04T16:25:04.806Z,3.70
2022-12-04T16:27:33.065Z,3.60
2022-12-04T16:30:01.279Z,3.60
2022-12-04T16:32:33.703Z,3.70
2022-12-04T16:35:03.833Z,3.70
2022-12-04T16:37:32.091Z,3.70
2022-12-04T16:40:06.487Z,3.60
2022-12-04T16:42:34.972Z,3.60
2022-12-04T16:45:03.907Z,3.70
2022-12-04T16:47:32.271Z,3.70
2022-12-04T16:50:02.045Z,3.60
2022-12-04T16:52:30.366Z,3.60
2022-12-04T16:55:04.406Z,3.60
2022-12-04T16:57:33.469Z,3.60
2022-12-04T17:00:01.690Z,3.60
2022-12-04T17:02:30.077Z,4.10
2022-12-04T17:04:58.621Z,3.80
2022-12-04T17:07:28.506Z,3.80
2022-12-04T17:09:56.754Z,3.80
2022-12-04T17:12:25.017Z,3.70
2022-12-04T17:14:53.219Z,3.80
2022-12-04T17:17:21.454Z,3.70
2022-12-04T17:19:49.604Z,3.80
2022-12-04T17:22:20.903Z,3.80
2022-12-04T17:24:55.917Z,3.70
2022-12-04T17:27:25.827Z,3.70
2022-12-04T17:29:54.259Z,3.90
2022-12-04T17:32:22.871Z,3.70
2022-12-04T17:34:54.888Z,3.70
2022-12-04T17:37:23.680Z,3.70
2022-12-04T17:39:53.290Z,3.80
2022-12-04T17:42:23.005Z,3.80
2022-12-04T17:44:51.337Z,3.90
2022-12-04T17:47:19.920Z,3.80
2022-12-04T17:49:48.165Z,3.90
2022-12-04T17:52:16.531Z,4.00
2022-12-04T17:54:44.809Z,3.90
2022-12-04T17:57:14.588Z,3.90
2022-12-04T17:59:42.804Z,4.00
2022-12-04T18:02:11.676Z,4.10
2022-12-04T18:04:40.553Z,4.00
2022-12-04T18:07:08.953Z,3.80
2022-12-04T18:09:38.226Z,3.80
2022-12-04T18:12:06.973Z,3.70
2022-12-04T18:14:37.046Z,3.80
2022-12-04T18:17:05.570Z,3.80
2022-12-04T18:19:33.881Z,4.00
2022-12-04T18:22:02.159Z,4.10
2022-12-04T18:24:30.955Z,4.00
2022-12-04T18:26:59.140Z,4.00
2022-12-04T18:29:28.714Z,4.00
2022-12-04T18:31:58.375Z,3.90
2022-12-04T18:34:26.900Z,4.00
2022-12-04T18:36:55.057Z,4.10
2022-12-04T18:39:26.643Z,4.00
2022-12-04T18:41:56.876Z,4.00
2022-12-04T18:44:25.955Z,4.10
2022-12-04T18:46:54.361Z,4.00
2022-12-04T18:49:23.957Z,4.10
2022-12-04T18:51:52.186Z,4.10
2022-12-04T18:54:23.400Z,4.20
2022-12-04T18:56:53.194Z,4.00
2022-12-04T18:59:25.400Z,4.10
2022-12-04T19:01:54.575Z,4.10
2022-12-04T19:04:25.678Z,4.10
2022-12-04T19:06:56.468Z,4.10
2022-12-04T19:10:08.935Z,4.00
2022-12-04T19:12:17.929Z,4.20
2022-12-04T19:14:46.499Z,4.20
2022-12-04T19:17:15.136Z,4.10
2022-12-04T19:19:44.715Z,4.10
2022-12-04T19:22:13.166Z,4.00
2022-12-04T19:24:41.993Z,4.00
2022-12-04T19:27:11.927Z,4.10
2022-12-04T19:29:41.686Z,4.30
2022-12-04T19:32:12.002Z,4.10
2022-12-04T19:34:40.845Z,4.10
2022-12-04T19:37:10.637Z,4.20
2022-12-04T19:39:39.327Z,4.10
2022-12-04T19:42:08.681Z,4.10
2022-12-04T19:44:53.286Z,4.10
2022-12-04T19:47:21.499Z,4.00
2022-12-04T19:49:49.929Z,4.10
2022-12-04T19:52:19.541Z,4.10
2022-12-04T19:54:48.264Z,4.10
2022-12-04T19:57:16.722Z,4.10
2022-12-04T19:59:57.406Z,4.00
2022-12-04T20:02:25.794Z,3.20
2022-12-04T20:04:56.471Z,4.10
2022-12-04T20:07:26.141Z,4.10
2022-12-04T20:09:56.159Z,4.20
2022-12-04T20:12:24.942Z,4.10
2022-12-04T20:14:53.355Z,3.80
2022-12-04T20:17:22.163Z,4.10
2022-12-04T20:19:50.440Z,4.10
2022-12-04T20:22:18.855Z,4.00
2022-12-04T20:24:48.473Z,4.10
2022-12-04T20:27:16.806Z,4.10
2022-12-04T20:29:45.186Z,4.00
2022-12-04T20:32:13.797Z,4.10
2022-12-04T20:34:43.897Z,4.20
2022-12-04T20:37:12.998Z,4.10
2022-12-04T20:39:41.370Z,4.10
2022-12-04T20:42:10.978Z,4.10
2022-12-04T20:44:39.173Z,4.10
2022-12-04T20:47:07.480Z,4.10
2022-12-04T20:49:35.721Z,4.10
2022-12-04T20:52:04.963Z,4.20
2022-12-04T20:54:40.770Z,4.10
2022-12-04T20:57:11.539Z,4.00
2022-12-04T20:59:39.882Z,4.00
2022-12-04T21:02:08.322Z,4.00
2022-12-04T21:04:38.777Z,4.00
2022-12-04T21:07:07.566Z,4.10
2022-12-04T21:09:35.877Z,4.10
2022-12-04T21:12:26.360Z,4.00
2022-12-04T21:15:13.674Z,4.10
2022-12-04T21:17:42.011Z,4.10
2022-12-04T21:20:11.682Z,4.20
2022-12-04T21:22:40.202Z,4.20
2022-12-04T21:25:10.131Z,4.10
2022-12-04T21:27:38.505Z,4.10
2022-12-04T21:30:10.443Z,4.10
2022-12-04T21:32:38.784Z,4.10
2022-12-04T21:35:08.042Z,4.10
2022-12-04T21:37:36.426Z,4.10
2022-12-04T21:40:04.965Z,4.10
2022-12-04T21:42:33.872Z,4.10
2022-12-04T21:45:04.371Z,4.20
2022-12-04T21:47:34.263Z,4.10
2022-12-04T21:50:02.457Z,4.10
2022-12-04T21:52:30.993Z,4.20
2022-12-04T21:54:59.307Z,4.20
2022-12-04T21:57:29.398Z,4.20
2022-12-04T21:59:58.022Z,4.10
2022-12-04T22:02:26.517Z,4.10
2022-12-04T22:04:56.156Z,4.10
2022-12-04T22:07:24.623Z,4.10
2022-12-04T22:09:52.788Z,4.20
2022-12-04T22:12:51.100Z,4.30
2022-12-04T22:15:10.589Z,4.30
2022-12-04T22:17:39.053Z,4.10
2022-12-04T22:20:10.460Z,4.20
2022-12-04T22:22:38.803Z,4.20
2022-12-04T22:25:07.900Z,4.20
2022-12-04T22:27:36.241Z,4.20
2022-12-04T22:30:06.289Z,4.20
2022-12-04T22:32:34.510Z,4.10
2022-12-04T22:35:02.711Z,4.20
2022-12-04T22:37:32.264Z,4.20
2022-12-04T22:40:00.469Z,4.20
2022-12-04T22:42:28.837Z,4.30
2022-12-04T22:44:57.413Z,4.70
2022-12-04T22:47:27.163Z,4.20
2022-12-04T22:49:55.692Z,4.20
2022-12-04T22:52:25.673Z,4.10
2022-12-04T22:54:55.254Z,4.10
2022-12-04T22:57:23.754Z,4.00
2022-12-04T22:59:51.945Z,4.20
2022-12-04T23:02:20.716Z,4.20
2022-12-04T23:04:48.936Z,4.10
2022-12-04T23:07:17.094Z,4.10
2022-12-04T23:09:45.545Z,4.10
2022-12-04T23:12:15.128Z,4.10
2022-12-04T23:14:43.475Z,4.10
2022-12-04T23:17:11.901Z,4.10
2022-12-04T23:19:40.450Z,4.10
2022-12-04T23:22:08.821Z,4.10
2022-12-04T23:24:38.515Z,4.10
2022-12-04T23:27:06.798Z,4.10
2022-12-04T23:29:52.644Z,4.10
2022-12-04T23:32:21.253Z,4.10
2022-12-04T23:34:49.828Z,4.10
2022-12-04T23:37:18.149Z,4.20
2022-12-04T23:39:46.387Z,4.00
2022-12-04T23:42:14.873Z,4.10
2022-12-04T23:44:44.515Z,4.00
2022-12-04T23:47:13.131Z,4.10
2022-12-04T23:49:41.509Z,4.10
2022-12-04T23:52:09.867Z,4.10
2022-12-04T23:54:38.090Z,4.00
2022-12-04T23:57:06.361Z,4.10
2022-12-04T23:59:34.742Z,4.00
